Carnival Victory — 3FFL8 — position and weather

sailwx.info

Track history (hours):
 
Tides and Currents Weather Stations Pressure Air Temp Water Temp Dewpoint Dewpoint Depression Visibility Wind Speed Wind Dir Waves Ship Positions

Carnival Victory

Operator: Carnival Cruise Lines

Last reported at 2017-Apr-26 00:00 UTC. Time now 2017-Apr-26 02:13 UTC.
Position N 23°36' W 083°00'.

Type: Ship. MMSI: 355263000.

Wind from 070 at 21 knots

Barometer 1010.7 mb
Air temperature 25.0 ° C
Visibility: greater than 10.8 NM
Dewpoint 20.7 ° C
Water temperature 27.0 ° C

Date/timePositionNaut miles runAvg speedWind from/ knotsBaromVisibWave heightAir tempDewpointWater temp
2017-Apr-26 00:00N 23°36' W 083°00'194 8.2 070 / 211010.710.8 25.020.727.0
2017-Apr-25 00:23N 25°10' W 079°53'514.3
2017-Apr-25 00:00N 25°14' W 079°51'714.1
2017-Apr-24 23:30N 25°21' W 079°49'714.3
2017-Apr-24 23:01N 25°28' W 079°48'4263.8
2017-Apr-24 23:00N 25°24' W 079°48'1224.1 040 / 281007.010.8 25.020.727.0
2017-Apr-24 22:31N 25°36' W 079°48'713.9
2017-Apr-24 22:01N 25°42' W 079°52'713.7
2017-Apr-24 21:31N 25°44' W 079°59'611.2
2017-Apr-24 21:00N 25°46' W 080°05'4 8.6
2017-Apr-24 20:30N 25°47' W 080°10'0 0.1
2017-Apr-24 19:57N 25°47' W 080°10'0 0.0
2017-Apr-24 19:27N 25°47' W 080°10'0 0.0
2017-Apr-24 19:00N 25°47' W 080°10'0 0.0
2017-Apr-24 18:30N 25°47' W 080°10'0 0.0
2017-Apr-24 18:00N 25°47' W 080°10'0 0.0
2017-Apr-24 17:30N 25°47' W 080°10'0 0.0
2017-Apr-24 17:00N 25°47' W 080°10'0 0.0
2017-Apr-24 16:30N 25°47' W 080°10'0 0.0
2017-Apr-24 16:00N 25°47' W 080°10'0 0.0
2017-Apr-24 15:30N 25°47' W 080°10'0 0.0
2017-Apr-24 15:00N 25°47' W 080°10'0 0.0
2017-Apr-24 14:30N 25°47' W 080°10'0 0.0
2017-Apr-24 13:30N 25°47' W 080°10'0 0.0
2017-Apr-24 13:00N 25°47' W 080°10'0 0.0
2017-Apr-24 12:30N 25°47' W 080°10'0 0.0
2017-Apr-24 12:00N 25°47' W 080°10'0 0.0
2017-Apr-24 11:30N 25°47' W 080°10'0 0.0
2017-Apr-24 11:00N 25°47' W 080°10'0 0.0
2017-Apr-24 10:30N 25°47' W 080°10'1 1.6
2017-Apr-24 10:00N 25°47' W 080°11'2 4.2
2017-Apr-24 09:30N 25°46' W 080°09'5 9.7
2017-Apr-24 09:00N 25°47' W 080°03'4 7.6
2017-Apr-24 08:30N 25°48' W 079°60'5 9.2
2017-Apr-24 08:01N 25°51' W 079°55'5 8.9
2017-Apr-24 07:30N 25°53' W 079°51'5 9.2
2017-Apr-24 07:00N 25°56' W 079°47'5 9.5
2017-Apr-24 06:30N 25°58' W 079°42'5 9.0
2017-Apr-24 06:00N 26°01' W 079°38'4 8.9
2017-Apr-24 05:30N 26°03' W 079°34'5 9.3
2017-Apr-24 05:00N 26°05' W 079°30'48 8.0
2017-Apr-23 23:00N 26°06' W 078°36'31 0.7 180 / 201011.4 25.020.727.0
2017-Apr-22 02:11N 26°18' W 079°08'512.6
2017-Apr-22 01:47N 26°15' W 079°13'413.4
2017-Apr-22 01:30N 26°13' W 079°16'713.7
2017-Apr-22 01:00N 26°09' W 079°22'713.8
2017-Apr-22 00:30N 26°05' W 079°29'713.8
2017-Apr-22 00:00N 26°01' W 079°35'713.6
2017-Apr-21 23:30N 25°58' W 079°42'713.8
2017-Apr-21 23:00N 25°55' W 079°48'713.7
2017-Apr-21 22:30N 25°51' W 079°55'612.4
2017-Apr-21 22:01N 25°49' W 080°01'5 9.1
2017-Apr-21 21:30N 25°46' W 080°05'5 9.1
2017-Apr-21 21:00N 25°47' W 080°10'0 0.2
2017-Apr-21 20:22N 25°47' W 080°10'0 0.0
2017-Apr-21 19:52N 25°47' W 080°10'0 0.0
2017-Apr-21 19:28N 25°47' W 080°10'0 0.0
2017-Apr-21 18:55N 25°47' W 080°10'0 0.0
2017-Apr-21 18:25N 25°47' W 080°10'0 0.0
2017-Apr-21 17:52N 25°47' W 080°10'0 0.0
2017-Apr-21 17:25N 25°47' W 080°10'0 0.0
2017-Apr-21 16:58N 25°47' W 080°10'0 0.0
2017-Apr-21 16:28N 25°47' W 080°10'0 0.0
2017-Apr-21 15:58N 25°47' W 080°10'0 0.0
2017-Apr-21 15:28N 25°47' W 080°10'0 0.0
2017-Apr-21 14:58N 25°47' W 080°10'0 0.0
2017-Apr-21 14:28N 25°47' W 080°10'0 0.0
2017-Apr-21 13:28N 25°47' W 080°10'0 0.0
2017-Apr-21 12:58N 25°47' W 080°10'0 0.0
2017-Apr-21 12:28N 25°47' W 080°10'0 0.0
2017-Apr-21 11:58N 25°47' W 080°10'0 0.0
2017-Apr-21 11:28N 25°47' W 080°10'0 0.0
2017-Apr-21 10:58N 25°47' W 080°10'0 0.0
2017-Apr-21 10:30N 25°47' W 080°10'2 4.9
2017-Apr-21 10:00N 25°46' W 080°08'611.5
2017-Apr-21 09:30N 25°47' W 080°02'510.4
2017-Apr-21 09:00N 25°44' W 079°57'613.0
2017-Apr-21 08:30N 25°38' W 079°55'816.1
2017-Apr-21 08:01N 25°30' W 079°54'815.8
2017-Apr-21 07:30N 25°22' W 079°55'815.6
2017-Apr-21 07:00N 25°14' W 079°57'11714.6
2017-Apr-20 23:00N 23°48' W 081°24'35417.8 180 / 281015.3 5.4 24.021.127.0
2017-Apr-20 03:03N 20°43' W 086°51'120.3
2017-Apr-20 03:00N 20°42' W 086°51'1020.0
2017-Apr-20 02:30N 20°35' W 086°58'612.5
2017-Apr-20 02:00N 20°29' W 086°59'0 0.2
2017-Apr-20 01:29N 20°29' W 086°59'0 0.0
2017-Apr-20 00:59N 20°29' W 086°59'0 0.0
2017-Apr-20 00:29N 20°29' W 086°59'0 0.0
2017-Apr-19 23:59N 20°29' W 086°59'0 0.0
2017-Apr-19 23:29N 20°29' W 086°59'613.1
2017-Apr-19 23:00N 20°24' W 086°54'6499.3 230 / 201014.3 5.4 24.021.127.0
2017-Apr-19 22:59N 20°29' W 086°59'0 0.0
2017-Apr-19 22:26N 20°29' W 086°59'0 0.0
2017-Apr-19 21:59N 20°29' W 086°59'0 0.0
2017-Apr-19 21:29N 20°29' W 086°59'0 0.0
2017-Apr-19 20:56N 20°29' W 086°59'0 0.0
2017-Apr-19 20:29N 20°29' W 086°59'0 0.0
2017-Apr-19 19:59N 20°29' W 086°59'0 0.0
2017-Apr-19 19:29N 20°29' W 086°59'0 0.0
2017-Apr-19 18:59N 20°29' W 086°59'0 0.0
2017-Apr-19 18:29N 20°29' W 086°59'0 0.0
2017-Apr-19 17:59N 20°29' W 086°59'0 0.0
2017-Apr-19 17:29N 20°29' W 086°59'0 0.0
2017-Apr-19 16:59N 20°29' W 086°59'0 0.0
2017-Apr-19 16:29N 20°29' W 086°59'0 0.0
2017-Apr-19 15:59N 20°29' W 086°59'1 2.0
2017-Apr-19 15:31N 20°30' W 086°59'5 9.7
2017-Apr-19 15:01N 20°34' W 086°59'6716.7
2017-Apr-19 11:00N 21°12' W 086°00'40011.6 350 / 261014.6 5.4 26.018.728.0
2017-Apr-18 00:30N 25°03' W 080°04'714.3
2017-Apr-18 00:00N 25°09' W 080°01'714.2
2017-Apr-17 23:30N 25°16' W 079°59'714.1
2017-Apr-17 23:00N 25°23' W 079°56'714.1
2017-Apr-17 22:30N 25°29' W 079°54'714.1
2017-Apr-17 22:00N 25°36' W 079°57'714.1
2017-Apr-17 21:30N 25°41' W 080°02'611.0
2017-Apr-17 21:00N 25°46' W 080°05'4 8.9
2017-Apr-17 20:30N 25°47' W 080°10'0 0.4
2017-Apr-17 19:57N 25°47' W 080°10'0 0.0
2017-Apr-17 19:30N 25°47' W 080°10'0 0.0
2017-Apr-17 19:00N 25°47' W 080°10'0 0.0
2017-Apr-17 18:30N 25°47' W 080°10'0 0.0
2017-Apr-17 18:00N 25°47' W 080°10'0 0.0
2017-Apr-17 17:30N 25°47' W 080°10'0 0.0
2017-Apr-17 17:00N 25°47' W 080°10'0 0.0
2017-Apr-17 16:30N 25°47' W 080°10'0 0.0
2017-Apr-17 15:51N 25°47' W 080°10'0 0.0
2017-Apr-17 15:30N 25°47' W 080°10'0 0.0
2017-Apr-17 14:54N 25°47' W 080°10'0 0.0
2017-Apr-17 14:30N 25°47' W 080°10'0 0.0
2017-Apr-17 13:27N 25°47' W 080°10'0 0.0
2017-Apr-17 12:54N 25°47' W 080°10'0 0.0
2017-Apr-17 12:24N 25°47' W 080°10'0 0.0
2017-Apr-17 11:57N 25°47' W 080°10'0 0.0
2017-Apr-17 11:27N 25°47' W 080°10'0 0.0
2017-Apr-17 11:00N 25°47' W 080°10'1 1.7
2017-Apr-17 10:30N 25°47' W 080°11'2 4.8
2017-Apr-17 10:00N 25°46' W 080°08'611.7
2017-Apr-17 09:30N 25°46' W 080°02'3 6.8
2017-Apr-17 09:00N 25°48' W 079°59'4 8.2
2017-Apr-17 08:30N 25°50' W 079°55'5 9.2
2017-Apr-17 08:00N 25°53' W 079°51'4 8.7
2017-Apr-17 07:30N 25°56' W 079°47'4 8.7
2017-Apr-17 07:00N 25°58' W 079°43'4 8.7
2017-Apr-17 06:30N 26°00' W 079°39'5 9.0
2017-Apr-17 06:00N 26°03' W 079°35'4 8.6
2017-Apr-17 05:30N 26°05' W 079°31'4 8.5
2017-Apr-17 05:00N 26°07' W 079°27'5 9.0
2017-Apr-17 04:30N 26°10' W 079°22'5 9.0
2017-Apr-17 04:00N 26°12' W 079°18'4 8.8
2017-Apr-17 03:30N 26°14' W 079°14'5 9.2
2017-Apr-17 02:57N 26°17' W 079°09'  
Track history (hours):
 
Tides and Currents Weather Stations Pressure Air Temp Water Temp Dewpoint Dewpoint Depression Visibility Wind Speed Wind Dir Waves Ship Positions

Carnival Victory

Operator: Carnival Cruise Lines

Last reported at 2017-Apr-26 00:00 UTC. Time now 2017-Apr-26 02:13 UTC.
Position N 23°36' W 083°00'.

Type: Ship. MMSI: 355263000.

Wind from 070 at 21 knots

Barometer 1010.7 mb
Air temperature 25.0 ° C
Visibility: greater than 10.8 NM
Dewpoint 20.7 ° C
Water temperature 27.0 ° C

Date/timePositionNaut miles runAvg speedWind from/ knotsBaromVisibWave heightAir tempDewpointWater temp
2017-Apr-26 00:00N 23°36' W 083°00'194 8.2 070 / 211010.710.8 25.020.727.0
2017-Apr-25 00:23N 25°10' W 079°53'514.3
2017-Apr-25 00:00N 25°14' W 079°51'714.1
2017-Apr-24 23:30N 25°21' W 079°49'714.3
2017-Apr-24 23:01N 25°28' W 079°48'4263.8
2017-Apr-24 23:00N 25°24' W 079°48'1224.1 040 / 281007.010.8 25.020.727.0
2017-Apr-24 22:31N 25°36' W 079°48'713.9
2017-Apr-24 22:01N 25°42' W 079°52'713.7
2017-Apr-24 21:31N 25°44' W 079°59'611.2
2017-Apr-24 21:00N 25°46' W 080°05'4 8.6
2017-Apr-24 20:30N 25°47' W 080°10'0 0.1
2017-Apr-24 19:57N 25°47' W 080°10'0 0.0
2017-Apr-24 19:27N 25°47' W 080°10'0 0.0
2017-Apr-24 19:00N 25°47' W 080°10'0 0.0
2017-Apr-24 18:30N 25°47' W 080°10'0 0.0
2017-Apr-24 18:00N 25°47' W 080°10'0 0.0
2017-Apr-24 17:30N 25°47' W 080°10'0 0.0
2017-Apr-24 17:00N 25°47' W 080°10'0 0.0
2017-Apr-24 16:30N 25°47' W 080°10'0 0.0
2017-Apr-24 16:00N 25°47' W 080°10'0 0.0
2017-Apr-24 15:30N 25°47' W 080°10'0 0.0
2017-Apr-24 15:00N 25°47' W 080°10'0 0.0
2017-Apr-24 14:30N 25°47' W 080°10'0 0.0
2017-Apr-24 13:30N 25°47' W 080°10'0 0.0
2017-Apr-24 13:00N 25°47' W 080°10'0 0.0
2017-Apr-24 12:30N 25°47' W 080°10'0 0.0
2017-Apr-24 12:00N 25°47' W 080°10'0 0.0
2017-Apr-24 11:30N 25°47' W 080°10'0 0.0
2017-Apr-24 11:00N 25°47' W 080°10'0 0.0
2017-Apr-24 10:30N 25°47' W 080°10'1 1.6
2017-Apr-24 10:00N 25°47' W 080°11'2 4.2
2017-Apr-24 09:30N 25°46' W 080°09'5 9.7
2017-Apr-24 09:00N 25°47' W 080°03'4 7.6
2017-Apr-24 08:30N 25°48' W 079°60'5 9.2
2017-Apr-24 08:01N 25°51' W 079°55'5 8.9
2017-Apr-24 07:30N 25°53' W 079°51'5 9.2
2017-Apr-24 07:00N 25°56' W 079°47'5 9.5
2017-Apr-24 06:30N 25°58' W 079°42'5 9.0
2017-Apr-24 06:00N 26°01' W 079°38'4 8.9
2017-Apr-24 05:30N 26°03' W 079°34'5 9.3
2017-Apr-24 05:00N 26°05' W 079°30'48 8.0
2017-Apr-23 23:00N 26°06' W 078°36'31 0.7 180 / 201011.4 25.020.727.0
2017-Apr-22 02:11N 26°18' W 079°08'512.6
2017-Apr-22 01:47N 26°15' W 079°13'413.4
2017-Apr-22 01:30N 26°13' W 079°16'713.7
2017-Apr-22 01:00N 26°09' W 079°22'713.8
2017-Apr-22 00:30N 26°05' W 079°29'713.8
2017-Apr-22 00:00N 26°01' W 079°35'713.6
2017-Apr-21 23:30N 25°58' W 079°42'713.8
2017-Apr-21 23:00N 25°55' W 079°48'713.7
2017-Apr-21 22:30N 25°51' W 079°55'612.4
2017-Apr-21 22:01N 25°49' W 080°01'5 9.1
2017-Apr-21 21:30N 25°46' W 080°05'5 9.1
2017-Apr-21 21:00N 25°47' W 080°10'0 0.2
2017-Apr-21 20:22N 25°47' W 080°10'0 0.0
2017-Apr-21 19:52N 25°47' W 080°10'0 0.0
2017-Apr-21 19:28N 25°47' W 080°10'0 0.0
2017-Apr-21 18:55N 25°47' W 080°10'0 0.0
2017-Apr-21 18:25N 25°47' W 080°10'0 0.0
2017-Apr-21 17:52N 25°47' W 080°10'0 0.0
2017-Apr-21 17:25N 25°47' W 080°10'0 0.0
2017-Apr-21 16:58N 25°47' W 080°10'0 0.0
2017-Apr-21 16:28N 25°47' W 080°10'0 0.0
2017-Apr-21 15:58N 25°47' W 080°10'0 0.0
2017-Apr-21 15:28N 25°47' W 080°10'0 0.0
2017-Apr-21 14:58N 25°47' W 080°10'0 0.0
2017-Apr-21 14:28N 25°47' W 080°10'0 0.0
2017-Apr-21 13:28N 25°47' W 080°10'0 0.0
2017-Apr-21 12:58N 25°47' W 080°10'0 0.0
2017-Apr-21 12:28N 25°47' W 080°10'0 0.0
2017-Apr-21 11:58N 25°47' W 080°10'0 0.0
2017-Apr-21 11:28N 25°47' W 080°10'0 0.0
2017-Apr-21 10:58N 25°47' W 080°10'0 0.0
2017-Apr-21 10:30N 25°47' W 080°10'2 4.9
2017-Apr-21 10:00N 25°46' W 080°08'611.5
2017-Apr-21 09:30N 25°47' W 080°02'510.4
2017-Apr-21 09:00N 25°44' W 079°57'613.0
2017-Apr-21 08:30N 25°38' W 079°55'816.1
2017-Apr-21 08:01N 25°30' W 079°54'815.8
2017-Apr-21 07:30N 25°22' W 079°55'815.6
2017-Apr-21 07:00N 25°14' W 079°57'11714.6
2017-Apr-20 23:00N 23°48' W 081°24'35417.8 180 / 281015.3 5.4 24.021.127.0
2017-Apr-20 03:03N 20°43' W 086°51'120.3
2017-Apr-20 03:00N 20°42' W 086°51'1020.0
2017-Apr-20 02:30N 20°35' W 086°58'612.5
2017-Apr-20 02:00N 20°29' W 086°59'0 0.2
2017-Apr-20 01:29N 20°29' W 086°59'0 0.0
2017-Apr-20 00:59N 20°29' W 086°59'0 0.0
2017-Apr-20 00:29N 20°29' W 086°59'0 0.0
2017-Apr-19 23:59N 20°29' W 086°59'0 0.0
2017-Apr-19 23:29N 20°29' W 086°59'613.1
2017-Apr-19 23:00N 20°24' W 086°54'6499.3 230 / 201014.3 5.4 24.021.127.0
2017-Apr-19 22:59N 20°29' W 086°59'0 0.0
2017-Apr-19 22:26N 20°29' W 086°59'0 0.0
2017-Apr-19 21:59N 20°29' W 086°59'0 0.0
2017-Apr-19 21:29N 20°29' W 086°59'0 0.0
2017-Apr-19 20:56N 20°29' W 086°59'0 0.0
2017-Apr-19 20:29N 20°29' W 086°59'0 0.0
2017-Apr-19 19:59N 20°29' W 086°59'0 0.0
2017-Apr-19 19:29N 20°29' W 086°59'0 0.0
2017-Apr-19 18:59N 20°29' W 086°59'0 0.0
2017-Apr-19 18:29N 20°29' W 086°59'0 0.0
2017-Apr-19 17:59N 20°29' W 086°59'0 0.0
2017-Apr-19 17:29N 20°29' W 086°59'0 0.0
2017-Apr-19 16:59N 20°29' W 086°59'0 0.0
2017-Apr-19 16:29N 20°29' W 086°59'0 0.0
2017-Apr-19 15:59N 20°29' W 086°59'1 2.0
2017-Apr-19 15:31N 20°30' W 086°59'5 9.7
2017-Apr-19 15:01N 20°34' W 086°59'6716.7
2017-Apr-19 11:00N 21°12' W 086°00'40011.6 350 / 261014.6 5.4 26.018.728.0
2017-Apr-18 00:30N 25°03' W 080°04'714.3
2017-Apr-18 00:00N 25°09' W 080°01'714.2
2017-Apr-17 23:30N 25°16' W 079°59'714.1
2017-Apr-17 23:00N 25°23' W 079°56'714.1
2017-Apr-17 22:30N 25°29' W 079°54'714.1
2017-Apr-17 22:00N 25°36' W 079°57'714.1
2017-Apr-17 21:30N 25°41' W 080°02'611.0
2017-Apr-17 21:00N 25°46' W 080°05'4 8.9
2017-Apr-17 20:30N 25°47' W 080°10'0 0.4
2017-Apr-17 19:57N 25°47' W 080°10'0 0.0
2017-Apr-17 19:30N 25°47' W 080°10'0 0.0
2017-Apr-17 19:00N 25°47' W 080°10'0 0.0
2017-Apr-17 18:30N 25°47' W 080°10'0 0.0
2017-Apr-17 18:00N 25°47' W 080°10'0 0.0
2017-Apr-17 17:30N 25°47' W 080°10'0 0.0
2017-Apr-17 17:00N 25°47' W 080°10'0 0.0
2017-Apr-17 16:30N 25°47' W 080°10'0 0.0
2017-Apr-17 15:51N 25°47' W 080°10'0 0.0
2017-Apr-17 15:30N 25°47' W 080°10'0 0.0
2017-Apr-17 14:54N 25°47' W 080°10'0 0.0
2017-Apr-17 14:30N 25°47' W 080°10'0 0.0
2017-Apr-17 13:27N 25°47' W 080°10'0 0.0
2017-Apr-17 12:54N 25°47' W 080°10'0 0.0
2017-Apr-17 12:24N 25°47' W 080°10'0 0.0
2017-Apr-17 11:57N 25°47' W 080°10'0 0.0
2017-Apr-17 11:27N 25°47' W 080°10'0 0.0
2017-Apr-17 11:00N 25°47' W 080°10'1 1.7
2017-Apr-17 10:30N 25°47' W 080°11'2 4.8
2017-Apr-17 10:00N 25°46' W 080°08'611.7
2017-Apr-17 09:30N 25°46' W 080°02'3 6.8
2017-Apr-17 09:00N 25°48' W 079°59'4 8.2
2017-Apr-17 08:30N 25°50' W 079°55'5 9.2
2017-Apr-17 08:00N 25°53' W 079°51'4 8.7
2017-Apr-17 07:30N 25°56' W 079°47'4 8.7
2017-Apr-17 07:00N 25°58' W 079°43'4 8.7
2017-Apr-17 06:30N 26°00' W 079°39'5 9.0
2017-Apr-17 06:00N 26°03' W 079°35'4 8.6
2017-Apr-17 05:30N 26°05' W 079°31'4 8.5
2017-Apr-17 05:00N 26°07' W 079°27'5 9.0
2017-Apr-17 04:30N 26°10' W 079°22'5 9.0
2017-Apr-17 04:00N 26°12' W 079°18'4 8.8
2017-Apr-17 03:30N 26°14' W 079°14'5 9.2
2017-Apr-17 02:57N 26°17' W 079°09'  

Dump ship's entire track history